x

San Francisco - 18nm West Of San Francisco, Ca (46026) Wave Buoy

6:50pm - Fri 5th Feb 2016 All times are PST. -8 hours from GMT.

  • Sig Wave height 6.9ft
  • Swell Direction
  • Peak Period 15s
  • Average Period 10s
  • Wind
    16mph, 18mph gusts
  • Sea Temp 55°f
  • Air Temp 55°f
  • Sea Pressure 1028.9mb
  • San Francisco - 18nm West Of San Francisco, Ca
  • San Francisco - 18nm West Of San Francisco, Ca

More Historic Weather Station data

Upgrade to MSW Pro to gain access to the past 30 days of data for over 8000 Wavebouys and Weather Stations around the globe.

Join Pro

Comparision Forecast

View Surf forecast
   
Fri 02/05 6:50pm 7ft 15s 10s 16 18 mph 1028.9mb 55f 55f
5:50pm 7ft 15s 10s 7 9 mph 1028.4mb 55f 55f
4:50pm 8.5ft 15s 11s 7 9 mph 1028.1mb 55f 55f
3:50pm 8.5ft 16s 11s 7 9 mph 1028.3mb 55f 56f
2:50pm 8ft 15s 11s 4 9 mph 1028.7mb 55f 55f
1:50pm 9ft 13s 11s 4 7 mph 1029.1mb 55f 55f
12:50pm 9.5ft 15s 11s 4 9 mph 1029.8mb 55f 55f
11:50am 10ft 15s 11s 11 16 mph 1030.5mb 55f 54f
10:50am 10ft 15s 10s 13 18 mph 1030.3mb 54f 53f
9:50am 10.5ft 15s 11s 16 20 mph 1029.9mb 54f 52f
8:50am 10.5ft 15s 11s 13 20 mph 1029.3mb 54f 53f
7:50am 9.5ft 15s 11s 13 18 mph 1029.2mb 54f 52f
6:50am 10ft 16s 12s 9 13 mph 1029.2mb 54f 53f
5:50am 10ft 16s 13s 4 7 mph 1029.1mb 54f 53f
4:50am 8.5ft 16s 11s 9 11 mph 1029.1mb 54f 53f
3:50am 9ft 16s 11s 7 11 mph 1029.3mb 54f 54f
2:50am 8ft 16s 11s 9 13 mph 1029mb 54f 54f
1:50am 8ft 17s 11s 11 16 mph 1028.4mb 54f 54f
12:50am 11ft 16s 12s 11 13 mph 1028.4mb 54f 54f
Thu 02/04 11:50pm 10ft 17s 12s 9 11 mph 1028.9mb 55f 54f
10:50pm 12ft 17s 13s 9 13 mph 1028.6mb 54f 55f
9:50pm 11ft 17s 12s 7 9 mph 1028.7mb 55f 55f
8:50pm 10.5ft 17s 12s 7 9 mph 1028.8mb 55f 54f
7:50pm 11ft 17s 13s 9 13 mph 1028.7mb 55f 54f
6:50pm 11.5ft 17s 13s 7 9 mph 1028.7mb 55f 55f
5:50pm 12ft 17s 13s 7
mph
1028.6mb 55f 56f
4:50pm 11.5ft 17s 12s 7 11 mph 1028.4mb 55f 56f
3:50pm 12.5ft 19s 13s 11 13 mph 1028.5mb 55f 56f
2:50pm 13ft 17s 13s 13 18 mph 1028.4mb 55f 56f
1:50pm 15ft 19s 14s 11 20 mph 1028.9mb 55f 55f
12:50pm 15.5ft 19s 14s 16 20 mph 1029.5mb 54f 55f
11:50am 11.5ft 19s 11s 20 25 mph 1030.2mb 54f 54f
10:50am 11ft 17s 11s 18 22 mph 1031mb 54f 53f
9:50am 13ft 19s 12s 20 27 mph 1030.4mb 54f 52f
8:50am 12.5ft 19s 12s 20 27 mph 1030.6mb 54f 51f
7:50am 11ft 19s 11s 20 27 mph 1030.4mb 54f 51f
6:50am 10.5ft 19s 11s 20 25 mph 1029.8mb 54f 51f
5:50am 9.5ft 19s 10s 18 22 mph 1029.5mb 54f 51f
4:50am 8.5ft 21s 10s 16 20 mph 1029.6mb 54f 52f
3:50am 9ft 19s 11s 16 20 mph 1029.3mb 54f 52f
2:50am 8.5ft 19s 11s 13 18 mph 1029.8mb 54f 53f
1:50am 7ft 19s 10s 9 13 mph 1030.2mb 54f 53f
12:50am 7.5ft 21s 11s 11 13 mph 1030.2mb 54f 53f
Wed 02/03 11:50pm 7ft 21s 10s 9 13 mph 1030.6mb 54f 54f
10:50pm 5ft 15s 8s 11 13 mph 1029.9mb 54f 54f
9:50pm 5ft 21s 9s 13 16 mph 1029.7mb 54f 54f
8:50pm 5ft 15s 9s 11 16 mph 1029.6mb 54f 54f
7:50pm 4.5ft 15s 8s 9 11 mph 1029.1mb 54f 54f
6:50pm 4.5ft 16s 8s 9 11 mph 1029mb 54f 54f
5:50pm 4.5ft 16s 8s 13
mph
1027.9mb 54f 54f
4:50pm 3.5ft 16s 7s 11 13 mph 1027.8mb 54f 54f
3:50pm 4ft 16s 7s 11 13 mph 1027.6mb 54f 53f
2:50pm 4ft 17s 7s 9 11 mph 1027.8mb 54f 53f
1:50pm 3.5ft 17s 7s 9
mph
1028.1mb 54f 52f
12:50pm 4.5ft 17s 7s 9 11 mph 1028.4mb 54f 51f
11:50am 4.5ft 17s 7s 13 16 mph 1028.3mb 54f 51f
10:50am 4.5ft 17s 6s 16 18 mph 1028.7mb 54f 50f
9:50am 5ft 9s 6s 18 20 mph 1028.5mb 54f 49f
8:50am 5ft 9s 6s 18 22 mph 1028.1mb 54f 48f
7:50am 5ft 9s 6s 20 22 mph 1027.7mb 54f 48f
6:50am 5ft 10s 6s 20 25 mph 1027.1mb 54f 48f
5:50am 5ft 10s 7s 18 22 mph 1026.7mb 54f 48f
4:50am 5ft 10s 7s 16 20 mph 1026.7mb 54f 48f
3:50am 5ft 11s 7s 16 20 mph 1026.5mb 54f 48f
2:50am 5.5ft 9s 7s 18 20 mph 1026.5mb 54f 48f
1:50am 5ft 10s 6s 20 25 mph 1026.2mb 54f 48f
Tue 02/02 11:50pm 5ft 8s 6s 20 22 mph 1026.1mb 54f 49f
10:50pm 5ft 12s 6s 18 22 mph 1026.2mb 54f 49f
9:50pm 5ft 8s 6s 18 22 mph 1026mb 54f 49f
8:50pm 5ft 8s 6s 18 22 mph 1025.7mb 54f 49f
7:50pm 5ft 8s 6s 16 18 mph 1025.8mb 54f 49f
6:50pm 5ft 8s 6s 16 20 mph 1025.3mb 55f 50f
5:50pm 5.5ft 9s 6s 16 18 mph 1025mb 55f 51f
4:50pm 5.5ft 9s 7s 4 9 mph 1024.7mb 55f 52f
3:50pm 5.5ft 8s 6s 11 13 mph 1024.1mb 55f 53f
2:50pm 5ft 8s 6s 13 16 mph 1023.7mb 55f 53f
1:50pm 5ft 10s 6s 13 16 mph 1023.6mb 55f 52f
12:50pm 4.5ft 11s 6s 13 16 mph 1023.7mb 55f 53f
11:50am 4.5ft 10s 6s 16 18 mph 1023.8mb 55f 53f
10:50am 4.5ft 11s 6s 9 16 mph 1023.8mb 54f 54f
9:50am 4.5ft 10s 6s 9 11 mph 1023.4mb 54f 54f
8:50am 4.5ft 11s 6s 13 16 mph 1022.9mb 54f 54f
7:50am 4.5ft 12s 6s 9 18 mph 1022.6mb 54f 52f
6:50am 4.5ft 12s 7s 11 13 mph 1022.6mb 54f 50f
5:50am 5ft 11s 7s 9 13 mph 1022.8mb 55f 49f
4:50am 4.5ft 12s 7s 13 16 mph 1023.5mb 55f 50f
3:50am 5.5ft 11s 7s 9 11 mph 1023.5mb 55f 52f